createdAt,value
2022-08-03T00:00:32.621Z,3.15
2022-08-03T00:03:00.485Z,2.00
2022-08-03T00:05:28.343Z,2.20
2022-08-03T00:07:56.249Z,8.65
2022-08-03T00:10:24.173Z,3.95
2022-08-03T00:12:52.301Z,2.45
2022-08-03T00:15:20.355Z,2.28
2022-08-03T00:17:53.742Z,3.63
2022-08-03T00:20:22.162Z,2.22
2022-08-03T00:22:50.433Z,2.38
2022-08-03T00:25:19.156Z,3.63
2022-08-03T00:27:48.386Z,3.50
2022-08-03T00:30:18.270Z,3.03
2022-08-03T00:32:46.331Z,5.18
2022-08-03T00:35:25.956Z,1.92
2022-08-03T00:38:02.205Z,4.07
2022-08-03T00:40:31.515Z,4.90
2022-08-03T00:43:02.412Z,3.53
2022-08-03T00:45:37.570Z,2.20
2022-08-03T00:48:19.492Z,3.28
2022-08-03T00:50:56.778Z,4.10
2022-08-03T00:53:25.511Z,1.88
2022-08-03T00:55:53.329Z,5.25
2022-08-03T00:58:21.192Z,1.92
2022-08-03T01:00:49.111Z,2.10
2022-08-03T01:06:18.289Z,2.08
2022-08-03T01:09:08.926Z,3.63
2022-08-03T01:11:59.826Z,3.50
2022-08-03T01:15:11.520Z,2.03
2022-08-03T01:18:09.627Z,2.85
2022-08-03T01:20:42.493Z,2.85
2022-08-03T01:23:44.619Z,2.45
2022-08-03T01:26:36.222Z,1.80
2022-08-03T01:29:52.961Z,2.00
2022-08-03T01:32:59.469Z,2.22
2022-08-03T01:35:38.642Z,2.08
2022-08-03T01:38:18.485Z,2.22
2022-08-03T01:40:47.830Z,2.20
2022-08-03T01:44:01.242Z,1.80
2022-08-03T01:48:38.438Z,2.45
2022-08-03T01:51:08.977Z,2.08
2022-08-03T01:53:42.730Z,1.85
2022-08-03T01:56:12.439Z,3.45
2022-08-03T01:58:42.157Z,2.65
2022-08-03T02:01:11.628Z,4.80
2022-08-03T02:04:00.253Z,4.28
2022-08-03T02:07:02.766Z,6.72
2022-08-03T02:09:23.622Z,11.07
2022-08-03T02:11:53.103Z,11.15
2022-08-03T02:14:22.281Z,11.00
2022-08-03T02:16:51.770Z,8.25
2022-08-03T02:19:20.236Z,3.08
2022-08-03T02:21:56.982Z,2.28
2022-08-03T02:24:31.118Z,1.83
2022-08-03T02:27:00.402Z,2.28
2022-08-03T02:29:40.223Z,1.75
2022-08-03T02:32:17.341Z,1.90
2022-08-03T02:34:50.732Z,2.67
2022-08-03T02:37:21.570Z,8.98
2022-08-03T02:39:53.303Z,7.20
2022-08-03T02:42:23.392Z,4.93
2022-08-03T02:44:53.278Z,3.92
2022-08-03T02:47:22.469Z,4.40
2022-08-03T02:49:52.768Z,5.68
2022-08-03T02:52:25.618Z,3.40
2022-08-03T02:54:59.053Z,2.90
2022-08-03T02:57:33.608Z,3.90
2022-08-03T03:00:02.558Z,2.13
2022-08-03T03:02:31.872Z,1.67
2022-08-03T03:05:54.594Z,1.80
2022-08-03T03:07:51.883Z,2.38
2022-08-03T03:10:25.815Z,2.35
2022-08-03T03:12:59.295Z,1.80
2022-08-03T03:15:31.661Z,2.30
2022-08-03T03:18:01.423Z,2.10
2022-08-03T03:20:30.687Z,3.20
2022-08-03T03:23:01.068Z,3.10
2022-08-03T03:25:33.378Z,4.03
2022-08-03T03:28:02.883Z,2.40
2022-08-03T03:30:31.027Z,2.38
2022-08-03T03:32:59.486Z,4.68
2022-08-03T03:35:28.509Z,6.40
2022-08-03T03:37:57.104Z,5.82
2022-08-03T03:40:26.385Z,3.63
2022-08-03T03:42:54.878Z,2.60
2022-08-03T03:45:24.171Z,2.30
2022-08-03T03:47:51.969Z,3.00
2022-08-03T03:50:20.619Z,2.60
2022-08-03T03:52:48.415Z,4.43
2022-08-03T03:55:19.919Z,2.53
2022-08-03T03:57:47.787Z,2.00
2022-08-03T04:00:18.040Z,2.03
2022-08-03T04:02:46.317Z,2.22
2022-08-03T04:05:33.825Z,2.90
2022-08-03T04:08:47.267Z,1.85
2022-08-03T04:11:30.388Z,2.00
2022-08-03T04:14:16.989Z,3.08
2022-08-03T04:17:01.642Z,3.08
2022-08-03T04:19:47.883Z,3.75
2022-08-03T04:22:22.647Z,3.42
2022-08-03T04:25:05.588Z,3.03
2022-08-03T04:27:40.537Z,2.75
2022-08-03T04:30:10.727Z,3.00
2022-08-03T04:32:44.126Z,2.78
2022-08-03T04:35:13.536Z,2.05
2022-08-03T04:37:48.757Z,2.50
2022-08-03T04:40:32.899Z,5.18
2022-08-03T04:43:02.080Z,3.03
2022-08-03T04:45:31.446Z,2.70
2022-08-03T04:48:00.310Z,7.32
2022-08-03T04:50:31.050Z,7.00
2022-08-03T04:53:08.877Z,3.33
2022-08-03T04:55:37.936Z,3.80
2022-08-03T04:58:25.730Z,2.60
2022-08-03T05:00:53.748Z,2.22
2022-08-03T05:03:25.054Z,2.53
2022-08-03T05:06:00.578Z,2.50
2022-08-03T05:08:46.159Z,5.38
2022-08-03T05:11:17.616Z,5.55
2022-08-03T05:13:47.951Z,2.17
2022-08-03T05:16:16.263Z,2.20
2022-08-03T05:18:44.991Z,1.80
2022-08-03T05:21:16.953Z,1.85
2022-08-03T05:23:45.332Z,2.20
2022-08-03T05:26:13.148Z,3.28
2022-08-03T05:28:50.664Z,3.03
2022-08-03T05:31:19.829Z,3.13
2022-08-03T05:33:48.976Z,2.22
2022-08-03T05:36:16.888Z,3.88
2022-08-03T05:38:44.829Z,1.80
2022-08-03T05:41:22.294Z,1.88
2022-08-03T05:43:55.399Z,3.28
2022-08-03T05:46:23.794Z,2.78
2022-08-03T05:48:51.886Z,2.83
2022-08-03T05:51:19.851Z,3.60
2022-08-03T05:53:47.776Z,2.38
2022-08-03T05:56:16.597Z,3.35
2022-08-03T05:58:48.322Z,4.70
2022-08-03T06:01:17.750Z,1.80
2022-08-03T06:03:46.336Z,4.63
2022-08-03T06:06:15.134Z,4.65
2022-08-03T06:08:44.978Z,2.55
2022-08-03T06:11:13.744Z,4.03
2022-08-03T06:13:42.118Z,4.07
2022-08-03T06:16:10.085Z,4.05
2022-08-03T06:18:38.833Z,2.60
2022-08-03T06:21:14.477Z,3.35
2022-08-03T06:23:54.015Z,2.33
2022-08-03T06:26:28.878Z,2.50
2022-08-03T06:28:56.971Z,3.85
2022-08-03T06:31:33.121Z,5.68
2022-08-03T06:34:33.671Z,2.00
2022-08-03T06:36:58.519Z,1.67
2022-08-03T06:39:30.094Z,1.60
2022-08-03T06:41:58.106Z,2.33
2022-08-03T06:44:26.127Z,2.50
2022-08-03T06:46:54.090Z,2.75
2022-08-03T06:49:22.008Z,2.55
2022-08-03T06:52:03.577Z,3.40
2022-08-03T06:54:33.225Z,1.80
2022-08-03T06:57:01.297Z,1.67
2022-08-03T07:00:09.005Z,1.80
2022-08-03T07:02:19.737Z,4.45
2022-08-03T07:04:50.846Z,1.90
2022-08-03T07:07:19.384Z,1.80
2022-08-03T07:09:57.425Z,1.85
2022-08-03T07:12:30.195Z,7.28
2022-08-03T07:15:02.617Z,2.30
2022-08-03T07:17:33.775Z,2.80
2022-08-03T07:20:05.053Z,1.92
2022-08-03T07:25:01.606Z,3.17
2022-08-03T07:27:30.283Z,2.45
2022-08-03T07:30:00.261Z,1.50
2022-08-03T07:32:31.486Z,1.70
2022-08-03T07:35:01.139Z,2.72
2022-08-03T07:37:30.821Z,3.17
2022-08-03T07:40:00.055Z,1.80
2022-08-03T07:42:29.192Z,2.30
2022-08-03T07:44:58.621Z,1.88
2022-08-03T07:47:35.718Z,3.28
2022-08-03T07:50:07.154Z,2.90
2022-08-03T07:52:49.453Z,6.20
2022-08-03T07:55:21.237Z,1.98
2022-08-03T07:58:09.530Z,4.63
2022-08-03T08:00:37.810Z,1.70
2022-08-03T08:03:05.722Z,1.60
2022-08-03T08:05:34.565Z,1.60
2022-08-03T08:08:03.744Z,1.55
2022-08-03T08:10:32.847Z,1.77
2022-08-03T08:13:01.708Z,7.30
2022-08-03T08:15:30.234Z,2.83
2022-08-03T08:18:01.442Z,2.90
2022-08-03T08:20:38.024Z,2.75
2022-08-03T08:23:09.642Z,1.40
2022-08-03T08:25:59.191Z,2.65
2022-08-03T08:28:32.855Z,1.88
2022-08-03T08:31:02.648Z,2.42
2022-08-03T08:33:54.279Z,3.20
2022-08-03T08:36:19.934Z,3.08
2022-08-03T08:38:47.774Z,1.70
2022-08-03T08:41:16.386Z,4.40
2022-08-03T08:43:44.430Z,1.55
2022-08-03T08:46:22.947Z,7.72
2022-08-03T08:48:54.044Z,5.13
2022-08-03T08:51:51.049Z,1.48
2022-08-03T08:54:18.090Z,2.58
2022-08-03T08:56:46.526Z,2.30
2022-08-03T08:59:15.110Z,4.57
2022-08-03T09:01:43.060Z,1.88
2022-08-03T09:04:12.387Z,1.60
2022-08-03T09:06:40.314Z,5.38
2022-08-03T09:09:08.337Z,1.52
2022-08-03T09:11:52.354Z,1.90
2022-08-03T09:14:36.727Z,2.85
2022-08-03T09:17:10.150Z,1.83
2022-08-03T09:20:07.646Z,2.83
2022-08-03T09:22:36.250Z,3.40
2022-08-03T09:25:27.190Z,1.52
2022-08-03T09:27:55.378Z,2.22
2022-08-03T09:30:34.537Z,2.35
2022-08-03T09:33:10.080Z,3.35
2022-08-03T09:35:54.997Z,1.25
2022-08-03T09:38:27.251Z,1.17
2022-08-03T09:41:00.390Z,1.10
2022-08-03T09:43:45.572Z,1.58
2022-08-03T09:46:13.578Z,1.27
2022-08-03T09:48:41.461Z,4.93
2022-08-03T09:51:13.293Z,2.15
2022-08-03T09:53:58.832Z,1.83
2022-08-03T09:56:47.302Z,1.65
2022-08-03T09:59:25.413Z,1.77
2022-08-03T10:01:55.712Z,2.15
2022-08-03T10:04:24.577Z,1.63
2022-08-03T10:07:09.184Z,1.25
2022-08-03T10:09:38.213Z,1.13
2022-08-03T10:12:13.959Z,0.80
2022-08-03T10:14:45.585Z,2.28
2022-08-03T10:19:41.785Z,0.90
2022-08-03T10:22:22.036Z,0.98
2022-08-03T10:25:00.090Z,1.00
2022-08-03T10:27:34.130Z,1.23
2022-08-03T10:30:10.506Z,1.65
2022-08-03T10:33:49.877Z,1.27
2022-08-03T10:36:11.784Z,3.70
2022-08-03T10:38:52.679Z,1.08
2022-08-03T10:41:25.576Z,1.13
2022-08-03T10:44:03.557Z,1.27
2022-08-03T10:46:33.340Z,1.00
2022-08-03T10:49:01.958Z,3.70
2022-08-03T10:51:33.519Z,1.10
2022-08-03T10:54:02.093Z,3.30
2022-08-03T10:56:51.448Z,1.30
2022-08-03T10:59:50.961Z,1.02
2022-08-03T11:02:18.953Z,0.80
2022-08-03T11:04:46.845Z,1.10
2022-08-03T11:07:23.172Z,1.85
2022-08-03T11:09:56.246Z,0.90
2022-08-03T11:12:30.361Z,0.90
2022-08-03T11:15:10.293Z,0.90
2022-08-03T11:17:46.820Z,1.02
2022-08-03T11:20:48.402Z,1.13
2022-08-03T11:24:03.305Z,1.15
2022-08-03T11:26:31.179Z,4.60
2022-08-03T11:29:31.471Z,1.20
2022-08-03T11:31:59.323Z,2.67
2022-08-03T11:34:27.290Z,2.60
2022-08-03T11:37:23.316Z,1.25
2022-08-03T11:39:54.653Z,0.90
2022-08-03T11:44:58.681Z,1.20
2022-08-03T11:47:29.507Z,1.27
2022-08-03T11:50:02.166Z,1.00
2022-08-03T11:52:40.151Z,2.13
2022-08-03T11:55:13.010Z,2.05
2022-08-03T11:59:16.954Z,0.88
2022-08-03T12:00:31.940Z,2.10
2022-08-03T12:03:02.930Z,4.22
2022-08-03T12:05:38.110Z,4.80
2022-08-03T12:08:08.575Z,4.43
2022-08-03T12:10:38.112Z,2.80
2022-08-03T12:14:26.926Z,2.42
2022-08-03T12:15:59.252Z,1.92
2022-08-03T12:18:27.256Z,0.88
2022-08-03T12:21:11.752Z,1.00
2022-08-03T12:23:40.098Z,1.40
2022-08-03T12:26:10.295Z,1.00
2022-08-03T12:28:38.655Z,8.80
2022-08-03T12:31:09.413Z,3.08
2022-08-03T12:34:06.515Z,1.10
2022-08-03T12:36:36.347Z,0.88
2022-08-03T12:39:09.557Z,0.90
2022-08-03T12:41:39.975Z,0.70
2022-08-03T12:44:09.636Z,0.90
2022-08-03T12:46:47.524Z,0.98
2022-08-03T12:49:18.735Z,1.58
2022-08-03T12:51:46.828Z,1.85
2022-08-03T12:54:24.613Z,0.90
2022-08-03T12:59:53.474Z,2.85
2022-08-03T13:02:28.698Z,0.80
2022-08-03T13:04:56.563Z,0.80
2022-08-03T13:07:24.412Z,1.90
2022-08-03T13:09:56.643Z,0.82
2022-08-03T13:12:27.387Z,0.90
2022-08-03T13:15:01.496Z,0.93
2022-08-03T13:17:29.267Z,0.93
2022-08-03T13:19:57.026Z,0.80
2022-08-03T13:22:30.734Z,1.00
2022-08-03T13:25:01.038Z,2.92
2022-08-03T13:28:04.478Z,2.95
2022-08-03T13:30:28.197Z,0.88
2022-08-03T13:33:00.075Z,1.35
2022-08-03T13:35:28.152Z,1.80
2022-08-03T13:37:56.083Z,1.00
2022-08-03T13:40:30.272Z,6.22
2022-08-03T13:42:58.452Z,2.97
2022-08-03T13:45:27.539Z,0.90
2022-08-03T13:47:55.454Z,1.52
2022-08-03T13:50:23.183Z,1.25
2022-08-03T13:52:51.038Z,1.25
2022-08-03T13:55:19.038Z,1.67
2022-08-03T13:58:04.083Z,0.80
2022-08-03T14:00:35.032Z,2.10
2022-08-03T14:03:09.538Z,0.90
2022-08-03T14:05:43.396Z,1.50
2022-08-03T14:08:11.851Z,2.90
2022-08-03T14:10:43.805Z,0.80
2022-08-03T14:13:16.845Z,0.90
2022-08-03T14:15:51.259Z,1.77
2022-08-03T14:18:28.971Z,0.80
2022-08-03T14:21:06.991Z,0.90
2022-08-03T14:23:37.874Z,0.88
2022-08-03T14:26:07.516Z,1.38
2022-08-03T14:28:36.156Z,1.38
2022-08-03T14:31:04.624Z,1.05
2022-08-03T14:33:36.373Z,1.20
2022-08-03T14:36:05.037Z,0.90
2022-08-03T14:38:32.937Z,0.80
2022-08-03T14:41:00.804Z,8.70
2022-08-03T14:43:34.258Z,0.95
2022-08-03T14:46:02.277Z,0.90
2022-08-03T14:50:30.492Z,1.77
2022-08-03T14:51:19.094Z,0.70
2022-08-03T14:53:46.906Z,0.80
2022-08-03T14:56:14.854Z,2.25
2022-08-03T14:58:42.595Z,2.13
2022-08-03T15:02:02.560Z,0.85
2022-08-03T15:03:58.571Z,1.80
2022-08-03T15:06:26.591Z,1.25
2022-08-03T15:11:42.830Z,1.05
2022-08-03T15:14:13.553Z,2.10
2022-08-03T15:16:44.087Z,0.77
2022-08-03T15:20:03.088Z,1.38
2022-08-03T15:22:01.097Z,3.03
2022-08-03T15:24:29.462Z,0.90
2022-08-03T15:26:57.478Z,2.05
2022-08-03T15:30:05.129Z,5.45
2022-08-03T15:32:14.024Z,1.33
2022-08-03T15:34:50.805Z,1.42
2022-08-03T15:37:20.661Z,1.00
2022-08-03T15:39:59.712Z,0.90
2022-08-03T15:42:31.168Z,0.80
2022-08-03T15:44:59.367Z,1.83
2022-08-03T15:47:27.761Z,0.90
2022-08-03T15:49:55.516Z,0.90
2022-08-03T15:52:23.451Z,1.27
2022-08-03T15:54:51.324Z,1.10
2022-08-03T15:57:19.490Z,2.33
2022-08-03T15:59:47.623Z,0.80
2022-08-03T16:02:15.760Z,0.90
2022-08-03T16:04:43.558Z,1.10
2022-08-03T16:07:12.864Z,3.92
2022-08-03T16:09:43.035Z,1.48
2022-08-03T16:12:15.863Z,1.02
2022-08-03T16:14:54.430Z,0.95
2022-08-03T16:17:24.233Z,2.20
2022-08-03T16:19:52.765Z,1.43
2022-08-03T16:22:24.571Z,0.98
2022-08-03T16:24:54.101Z,1.95
2022-08-03T16:27:56.701Z,0.80
2022-08-03T16:30:13.191Z,3.38
2022-08-03T16:32:41.316Z,0.80
2022-08-03T16:35:19.584Z,0.90
2022-08-03T16:37:53.667Z,2.90
2022-08-03T16:40:25.216Z,0.70
2022-08-03T16:42:53.016Z,1.10
2022-08-03T16:45:21.156Z,1.77
2022-08-03T16:47:48.986Z,0.88
2022-08-03T16:50:29.607Z,2.13
2022-08-03T16:52:57.467Z,1.60
2022-08-03T16:55:48.395Z,2.03
2022-08-03T16:58:14.976Z,0.88
2022-08-03T17:00:43.131Z,0.87
2022-08-03T17:03:20.488Z,1.85
2022-08-03T17:05:52.239Z,1.40
2022-08-03T17:08:26.566Z,1.08
2022-08-03T17:10:56.363Z,1.15
2022-08-03T17:13:33.028Z,0.95
2022-08-03T17:16:10.360Z,1.23
2022-08-03T17:21:17.490Z,0.80
2022-08-03T17:23:55.113Z,1.65
2022-08-03T17:26:30.278Z,1.50
2022-08-03T17:29:11.329Z,0.90
2022-08-03T17:31:48.891Z,0.98
2022-08-03T17:34:19.360Z,1.30
2022-08-03T17:37:05.538Z,3.05
2022-08-03T17:42:31.218Z,5.68
2022-08-03T17:45:02.141Z,0.80
2022-08-03T17:47:42.858Z,1.02
2022-08-03T17:50:24.067Z,0.80
2022-08-03T17:53:24.277Z,1.77
2022-08-03T17:56:50.730Z,2.83
2022-08-03T17:59:54.034Z,2.25
2022-08-03T18:03:06.199Z,1.33
2022-08-03T18:06:10.669Z,1.50
2022-08-03T18:08:43.737Z,3.92
2022-08-03T18:11:21.294Z,1.13
2022-08-03T18:14:17.010Z,0.93
2022-08-03T18:16:57.764Z,1.10
2022-08-03T18:20:02.551Z,0.77
2022-08-03T18:22:21.035Z,1.25
2022-08-03T18:24:54.645Z,0.85
2022-08-03T18:27:23.501Z,3.13
2022-08-03T18:30:15.125Z,1.42
2022-08-03T18:32:44.221Z,3.25
2022-08-03T18:38:18.859Z,1.17
2022-08-03T18:40:48.811Z,1.55
2022-08-03T18:43:18.446Z,1.55
2022-08-03T18:45:55.864Z,2.57
2022-08-03T18:48:46.045Z,4.30
2022-08-03T18:51:28.863Z,5.00
2022-08-03T18:54:51.808Z,3.47
2022-08-03T18:57:30.359Z,1.52
2022-08-03T19:00:10.560Z,2.28
2022-08-03T19:03:05.228Z,1.08
2022-08-03T19:05:56.254Z,1.80
2022-08-03T19:09:22.848Z,1.65
2022-08-03T19:12:13.154Z,3.97
2022-08-03T19:14:56.352Z,4.55
2022-08-03T19:17:29.520Z,3.95
2022-08-03T19:19:58.688Z,5.88
2022-08-03T19:22:30.032Z,5.78
2022-08-03T19:25:01.536Z,6.85
2022-08-03T19:27:31.615Z,1.73
2022-08-03T19:30:08.294Z,2.50
2022-08-03T19:32:48.304Z,2.17
2022-08-03T19:35:18.893Z,4.65
2022-08-03T19:37:47.085Z,3.50
2022-08-03T19:40:15.087Z,4.80
2022-08-03T19:42:54.696Z,3.95
2022-08-03T19:46:04.786Z,3.75
2022-08-03T19:48:29.534Z,2.25
2022-08-03T19:50:59.804Z,1.67
2022-08-03T19:53:35.171Z,4.18
2022-08-03T19:56:06.276Z,4.15
2022-08-03T19:58:35.343Z,1.48
2022-08-03T20:01:21.345Z,1.30
2022-08-03T20:03:50.726Z,1.75
2022-08-03T20:06:22.543Z,2.22
2022-08-03T20:08:51.589Z,1.40
2022-08-03T20:11:20.807Z,1.50
2022-08-03T20:13:58.671Z,1.30
2022-08-03T20:16:26.746Z,1.27
2022-08-03T20:18:54.835Z,1.90
2022-08-03T20:21:27.191Z,24.63
2022-08-03T20:24:02.875Z,39.78
2022-08-03T20:26:53.952Z,49.17
2022-08-03T20:29:42.679Z,29.33
2022-08-03T20:32:24.661Z,33.83
2022-08-03T20:34:53.344Z,21.30
2022-08-03T20:37:21.455Z,26.25
2022-08-03T20:39:49.696Z,24.20
2022-08-03T20:42:19.270Z,25.67
2022-08-03T20:45:05.156Z,29.02
2022-08-03T20:47:35.934Z,23.67
2022-08-03T20:50:07.636Z,19.17
2022-08-03T20:52:49.529Z,9.48
2022-08-03T20:55:47.225Z,14.20
2022-08-03T20:58:07.935Z,14.00
2022-08-03T21:00:35.931Z,7.57
2022-08-03T21:03:03.874Z,5.65
2022-08-03T21:05:47.792Z,6.50
2022-08-03T21:08:18.227Z,4.72
2022-08-03T21:10:46.886Z,4.55
2022-08-03T21:13:04.350Z,1.65
2022-08-03T21:13:51.856Z,5.32
2022-08-03T21:16:26.842Z,3.65
2022-08-03T21:18:58.910Z,2.40
2022-08-03T21:21:30.898Z,4.60
2022-08-03T21:24:03.543Z,3.85
2022-08-03T21:26:37.740Z,5.25
2022-08-03T21:29:06.319Z,5.80
2022-08-03T21:31:34.724Z,4.55
2022-08-03T21:34:05.119Z,5.10
2022-08-03T21:36:36.044Z,4.23
2022-08-03T21:39:09.446Z,7.03
2022-08-03T21:41:40.427Z,4.30
2022-08-03T21:44:09.503Z,3.88
2022-08-03T21:46:40.927Z,5.38
2022-08-03T21:50:05.405Z,4.97
2022-08-03T21:52:06.844Z,2.88
2022-08-03T21:54:40.126Z,3.72
2022-08-03T21:57:24.913Z,3.15
2022-08-03T22:00:10.436Z,3.63
2022-08-03T22:03:15.126Z,2.78
2022-08-03T22:05:44.761Z,4.78
2022-08-03T22:08:15.719Z,1.40
2022-08-03T22:10:45.124Z,1.45
2022-08-03T22:13:19.497Z,2.97
2022-08-03T22:16:04.367Z,3.10
2022-08-03T22:18:32.326Z,1.52
2022-08-03T22:21:00.491Z,4.43
2022-08-03T22:23:28.336Z,1.98
2022-08-03T22:25:58.931Z,2.85
2022-08-03T22:28:30.526Z,1.77
2022-08-03T22:31:00.290Z,1.90
2022-08-03T22:33:49.316Z,2.45
2022-08-03T22:36:23.030Z,2.25
2022-08-03T22:38:53.992Z,2.15
2022-08-03T22:41:22.361Z,3.05
2022-08-03T22:43:50.183Z,5.10
2022-08-03T22:46:21.993Z,3.80
2022-08-03T22:48:51.640Z,1.85
2022-08-03T22:51:20.214Z,2.58
2022-08-03T22:53:48.724Z,1.88
2022-08-03T22:56:16.720Z,3.95
2022-08-03T22:58:44.473Z,2.35
2022-08-03T23:01:19.266Z,2.28
2022-08-03T23:04:00.083Z,2.72
2022-08-03T23:06:37.919Z,4.80
2022-08-03T23:09:12.227Z,1.48
2022-08-03T23:11:45.955Z,1.50
2022-08-03T23:14:17.739Z,1.95
2022-08-03T23:16:47.551Z,1.20
2022-08-03T23:19:25.015Z,6.47
2022-08-03T23:22:02.890Z,1.90
2022-08-03T23:24:38.975Z,2.28
2022-08-03T23:27:08.156Z,1.65
2022-08-03T23:29:38.120Z,2.45
2022-08-03T23:32:07.146Z,1.58
2022-08-03T23:34:56.895Z,2.17
2022-08-03T23:37:26.209Z,1.52
2022-08-03T23:39:56.921Z,3.33
2022-08-03T23:42:25.490Z,1.58
2022-08-03T23:45:06.145Z,1.50
2022-08-03T23:47:47.220Z,1.40
2022-08-03T23:50:16.354Z,1.95
2022-08-03T23:53:12.008Z,3.55
2022-08-03T23:56:19.115Z,1.60
2022-08-03T23:59:23.730Z,1.40
